createdAt,value
2017-06-12T00:00:54.962Z,76.70
2017-06-12T00:03:22.488Z,77.00
2017-06-12T00:05:50.030Z,77.20
2017-06-12T00:08:17.556Z,76.90
2017-06-12T00:10:45.863Z,75.20
2017-06-12T00:13:13.387Z,75.20
2017-06-12T00:15:40.937Z,75.20
2017-06-12T00:18:08.460Z,76.60
2017-06-12T00:20:36.002Z,77.20
2017-06-12T00:23:03.518Z,77.60
2017-06-12T00:25:31.061Z,77.60
2017-06-12T00:27:58.583Z,77.50
2017-06-12T00:30:26.110Z,77.10
2017-06-12T00:32:53.651Z,76.60
2017-06-12T00:35:21.170Z,75.80
2017-06-12T00:37:48.715Z,75.20
2017-06-12T00:40:17.007Z,74.50
2017-06-12T00:42:44.549Z,74.40
2017-06-12T00:45:12.075Z,74.40
2017-06-12T00:47:40.394Z,73.90
2017-06-12T00:50:07.912Z,73.70
2017-06-12T00:52:36.202Z,74.60
2017-06-12T00:55:04.506Z,76.00
2017-06-12T00:57:32.027Z,76.00
2017-06-12T00:59:59.570Z,78.10
2017-06-12T01:02:27.095Z,77.30
2017-06-12T01:04:54.639Z,75.00
2017-06-12T01:07:22.155Z,75.40
2017-06-12T01:09:50.463Z,77.10
2017-06-12T01:12:17.988Z,77.10
2017-06-12T01:14:45.536Z,77.40
2017-06-12T01:17:13.814Z,78.00
2017-06-12T01:19:42.107Z,78.00
2017-06-12T01:22:21.452Z,78.00
2017-06-12T01:24:48.969Z,75.70
2017-06-12T01:27:16.512Z,77.40
2017-06-12T01:29:44.799Z,79.30
2017-06-12T01:32:12.341Z,79.20
2017-06-12T01:34:39.862Z,79.20
2017-06-12T01:37:07.403Z,78.90
2017-06-12T01:39:34.926Z,79.00
2017-06-12T01:42:02.464Z,79.20
2017-06-12T01:44:30.000Z,79.20
2017-06-12T01:46:57.547Z,78.70
2017-06-12T01:49:25.836Z,78.30
2017-06-12T01:51:54.246Z,78.30
2017-06-12T01:54:21.792Z,78.10
2017-06-12T01:56:49.317Z,77.00
2017-06-12T01:59:16.859Z,76.90
2017-06-12T02:01:44.383Z,77.60
2017-06-12T02:04:11.931Z,79.30
2017-06-12T02:06:40.219Z,79.50
2017-06-12T02:09:07.767Z,79.50
2017-06-12T02:11:36.060Z,79.50
2017-06-12T02:14:03.583Z,79.40
2017-06-12T02:16:31.122Z,80.10
2017-06-12T02:18:58.644Z,80.70
2017-06-12T02:21:26.185Z,80.20
2017-06-12T02:23:53.710Z,80.30
2017-06-12T02:26:21.264Z,80.30
2017-06-12T02:28:48.787Z,80.10
2017-06-12T02:31:17.104Z,79.90
2017-06-12T02:33:45.409Z,80.30
2017-06-12T02:36:12.948Z,80.10
2017-06-12T02:38:40.488Z,80.30
2017-06-12T02:41:08.775Z,80.90
2017-06-12T02:43:36.315Z,80.80
2017-06-12T02:46:03.839Z,81.20
2017-06-12T02:48:31.386Z,81.80
2017-06-12T02:50:58.907Z,81.40
2017-06-12T02:53:26.451Z,81.00
2017-06-12T02:55:54.740Z,81.50
2017-06-12T02:58:22.301Z,82.20
2017-06-12T03:00:49.829Z,80.80
2017-06-12T03:03:17.355Z,80.70
2017-06-12T03:05:44.898Z,80.40
2017-06-12T03:08:13.187Z,80.10
2017-06-12T03:10:40.730Z,80.10
2017-06-12T03:13:09.020Z,81.50
2017-06-12T03:15:37.421Z,81.40
2017-06-12T03:18:05.064Z,81.80
2017-06-12T03:20:32.619Z,81.60
2017-06-12T03:23:00.143Z,81.40
2017-06-12T03:25:27.664Z,81.40
2017-06-12T03:27:55.208Z,81.70
2017-06-12T03:30:23.494Z,83.10
2017-06-12T03:32:51.082Z,82.30
2017-06-12T03:35:18.600Z,82.50
2017-06-12T03:37:46.159Z,81.80
2017-06-12T03:40:13.677Z,81.80
2017-06-12T03:42:41.974Z,82.20
2017-06-12T03:45:09.514Z,82.20
2017-06-12T03:47:37.802Z,81.80
2017-06-12T03:50:06.111Z,81.30
2017-06-12T03:52:33.640Z,81.10
2017-06-12T03:55:01.185Z,81.00
2017-06-12T03:57:28.708Z,81.50
2017-06-12T03:59:56.259Z,81.90
2017-06-12T04:02:23.782Z,82.70
2017-06-12T04:04:52.070Z,82.60
2017-06-12T04:07:19.611Z,82.60
2017-06-12T04:09:47.898Z,82.10
2017-06-12T04:12:16.207Z,81.60
2017-06-12T04:14:44.496Z,81.60
2017-06-12T04:17:12.042Z,81.50
2017-06-12T04:19:39.564Z,81.50
2017-06-12T04:22:07.111Z,81.80
2017-06-12T04:24:34.634Z,81.10
2017-06-12T04:27:02.178Z,81.90
2017-06-12T04:29:29.723Z,82.00
2017-06-12T04:31:57.246Z,82.50
2017-06-12T04:34:25.546Z,83.60
2017-06-12T04:36:53.067Z,83.40
2017-06-12T04:39:21.375Z,82.20
2017-06-12T04:41:48.897Z,82.10
2017-06-12T04:44:16.670Z,81.10
2017-06-12T04:46:45.763Z,80.00
2017-06-12T04:49:13.287Z,79.90
2017-06-12T04:51:40.831Z,79.70
2017-06-12T04:54:09.117Z,77.40
2017-06-12T04:56:36.661Z,77.20
2017-06-12T04:59:04.183Z,75.00
2017-06-12T05:01:31.727Z,75.00
2017-06-12T05:04:00.019Z,76.60
2017-06-12T05:06:27.563Z,76.60
2017-06-12T05:08:55.850Z,78.30
2017-06-12T05:11:23.374Z,78.20
2017-06-12T05:13:50.916Z,75.40
2017-06-12T05:16:18.437Z,74.60
2017-06-12T05:18:45.976Z,73.40
2017-06-12T05:21:13.496Z,71.20
2017-06-12T05:23:41.042Z,67.30
2017-06-12T05:26:08.567Z,66.80
2017-06-12T05:28:36.125Z,66.90
2017-06-12T05:31:03.659Z,66.60
2017-06-12T05:33:31.191Z,66.60
2017-06-12T05:35:58.734Z,66.50
2017-06-12T05:38:26.254Z,66.70
2017-06-12T05:40:53.800Z,63.50
2017-06-12T05:43:21.329Z,57.90
2017-06-12T05:45:48.866Z,56.10
2017-06-12T05:48:16.382Z,54.40
2017-06-12T05:50:43.923Z,53.80
2017-06-12T05:53:12.212Z,49.00
2017-06-12T05:55:39.767Z,49.00
2017-06-12T05:58:07.296Z,50.30
2017-06-12T06:00:34.825Z,49.50
2017-06-12T06:03:03.140Z,52.30
2017-06-12T06:05:30.663Z,51.90
2017-06-12T06:07:58.212Z,49.70
2017-06-12T06:10:25.738Z,51.80
2017-06-12T06:12:53.280Z,52.30
2017-06-12T06:15:20.794Z,54.30
2017-06-12T06:17:48.335Z,55.60
2017-06-12T06:20:15.858Z,56.30
2017-06-12T06:22:43.418Z,56.80
2017-06-12T06:25:10.950Z,56.20
2017-06-12T06:27:38.479Z,55.60
2017-06-12T06:30:06.032Z,54.40
2017-06-12T06:32:33.556Z,52.50
2017-06-12T06:35:01.103Z,51.50
2017-06-12T06:37:28.628Z,50.50
2017-06-12T06:39:56.170Z,49.90
2017-06-12T06:42:23.706Z,47.60
2017-06-12T06:44:51.247Z,48.40
2017-06-12T06:47:18.776Z,50.20
2017-06-12T06:49:46.346Z,50.30
2017-06-12T06:52:14.643Z,51.10
2017-06-12T06:54:42.167Z,51.00
2017-06-12T06:57:09.704Z,51.50
2017-06-12T06:59:37.223Z,52.80
2017-06-12T07:02:04.805Z,53.70
2017-06-12T07:04:32.331Z,53.70
2017-06-12T07:06:59.871Z,53.50
2017-06-12T07:09:27.394Z,53.60
2017-06-12T07:11:55.720Z,54.00
2017-06-12T07:14:23.247Z,54.00
2017-06-12T07:16:50.767Z,52.90
2017-06-12T07:19:18.315Z,52.10
2017-06-12T07:21:45.843Z,51.90
2017-06-12T07:24:13.383Z,51.10
2017-06-12T07:26:40.908Z,51.30
2017-06-12T07:29:09.226Z,52.60
2017-06-12T07:31:37.514Z,52.60
2017-06-12T07:34:05.056Z,52.60
2017-06-12T07:36:33.348Z,53.30
2017-06-12T07:39:00.895Z,53.10
2017-06-12T07:41:28.431Z,53.40
2017-06-12T07:43:55.958Z,52.60
2017-06-12T07:46:23.503Z,51.80
2017-06-12T07:48:51.791Z,50.80
2017-06-12T07:51:19.334Z,50.80
2017-06-12T07:53:47.630Z,51.20
2017-06-12T07:56:15.939Z,49.70
2017-06-12T07:58:43.461Z,49.70
2017-06-12T08:01:11.002Z,50.20
2017-06-12T08:03:38.527Z,50.10
2017-06-12T08:06:06.071Z,50.90
2017-06-12T08:08:33.612Z,51.50
2017-06-12T08:11:01.174Z,52.40
2017-06-12T08:13:28.699Z,52.50
2017-06-12T08:15:56.220Z,51.40
2017-06-12T08:18:23.768Z,49.90
2017-06-12T08:20:51.286Z,50.00
2017-06-12T08:23:18.831Z,49.70
2017-06-12T08:25:47.129Z,46.90
2017-06-12T08:28:14.670Z,46.80
2017-06-12T08:30:42.193Z,45.60
2017-06-12T08:33:09.735Z,46.40
2017-06-12T08:35:38.029Z,44.60
2017-06-12T08:38:05.579Z,44.50
2017-06-12T08:40:33.873Z,44.40
2017-06-12T08:43:01.395Z,44.40
2017-06-12T08:45:28.934Z,44.70
2017-06-12T08:47:56.451Z,43.60
2017-06-12T08:50:24.759Z,46.60
2017-06-12T08:52:52.315Z,46.60
2017-06-12T08:55:19.855Z,47.40
2017-06-12T08:57:47.388Z,48.40
2017-06-12T09:00:15.706Z,45.80
2017-06-12T09:02:43.235Z,45.70
2017-06-12T09:05:10.790Z,45.80
2017-06-12T09:07:38.316Z,44.80
2017-06-12T09:10:05.847Z,44.40
2017-06-12T09:12:34.149Z,47.40
2017-06-12T09:15:01.670Z,47.50
2017-06-12T09:17:29.210Z,44.40
2017-06-12T09:19:56.731Z,42.90
2017-06-12T09:22:24.288Z,42.50
2017-06-12T09:24:51.811Z,44.00
2017-06-12T09:27:19.336Z,42.10
2017-06-12T09:29:47.644Z,42.20
2017-06-12T09:32:15.163Z,41.90
2017-06-12T09:34:42.711Z,42.80
2017-06-12T09:37:10.236Z,44.30
2017-06-12T09:39:37.782Z,42.50
2017-06-12T09:42:05.303Z,43.10
2017-06-12T09:44:33.624Z,42.40
2017-06-12T09:47:01.150Z,42.40
2017-06-12T09:49:28.690Z,42.00
2017-06-12T09:51:56.235Z,40.80
2017-06-12T09:54:23.756Z,39.20
2017-06-12T09:56:51.299Z,38.80
2017-06-12T09:59:18.821Z,39.20
2017-06-12T10:01:46.355Z,39.30
2017-06-12T10:04:13.875Z,38.00
2017-06-12T10:06:41.416Z,39.70
2017-06-12T10:09:08.942Z,37.00
2017-06-12T10:11:36.495Z,39.60
2017-06-12T10:14:04.017Z,37.30
2017-06-12T10:16:31.547Z,35.80
2017-06-12T10:18:59.100Z,36.00
2017-06-12T10:21:26.652Z,37.60
2017-06-12T10:23:54.167Z,37.30
2017-06-12T10:26:21.695Z,37.00
2017-06-12T10:28:50.002Z,36.50
2017-06-12T10:31:17.528Z,36.50
2017-06-12T10:33:45.076Z,35.70
2017-06-12T10:36:13.373Z,37.90
2017-06-12T10:38:40.900Z,37.90
2017-06-12T10:41:08.446Z,37.50
2017-06-12T10:43:35.982Z,36.10
2017-06-12T10:46:03.559Z,35.40
2017-06-12T10:48:31.082Z,35.80
2017-06-12T10:50:58.604Z,33.60
2017-06-12T10:53:26.148Z,33.50
2017-06-12T10:55:53.667Z,32.70
2017-06-12T10:58:21.231Z,32.70
2017-06-12T11:00:48.756Z,34.30
2017-06-12T11:03:16.286Z,33.70
2017-06-12T11:05:43.828Z,34.10
2017-06-12T11:08:11.350Z,34.40
2017-06-12T11:10:38.905Z,35.20
2017-06-12T11:13:06.433Z,34.90
2017-06-12T11:15:33.982Z,35.90
2017-06-12T11:18:01.546Z,36.30
2017-06-12T11:20:29.069Z,35.50
2017-06-12T11:22:56.611Z,35.10
2017-06-12T11:25:29.883Z,33.60
2017-06-12T11:27:59.212Z,32.90
2017-06-12T11:30:26.734Z,31.50
2017-06-12T11:32:54.266Z,32.60
2017-06-12T11:35:21.809Z,32.10
2017-06-12T11:37:50.101Z,32.50
2017-06-12T11:40:17.653Z,33.00
2017-06-12T11:42:45.946Z,32.80
2017-06-12T11:45:13.466Z,32.80
2017-06-12T11:47:41.014Z,33.50
2017-06-12T11:50:09.303Z,32.40
2017-06-12T11:52:36.875Z,32.40
2017-06-12T11:55:04.391Z,32.70
2017-06-12T11:57:31.920Z,32.30
2017-06-12T11:59:59.467Z,32.50
2017-06-12T12:02:26.991Z,33.60
2017-06-12T12:04:54.553Z,32.60
2017-06-12T12:07:22.855Z,32.70
2017-06-12T12:09:50.379Z,32.70
2017-06-12T12:12:17.922Z,30.30
2017-06-12T12:14:45.442Z,30.20
2017-06-12T12:17:12.996Z,30.70
2017-06-12T12:19:40.523Z,29.00
2017-06-12T12:22:08.047Z,28.50
2017-06-12T12:24:35.592Z,28.70
2017-06-12T12:27:03.114Z,29.20
2017-06-12T12:29:30.672Z,29.30
2017-06-12T12:31:58.958Z,29.30
2017-06-12T12:34:26.495Z,29.30
2017-06-12T12:36:54.809Z,30.60
2017-06-12T12:39:22.335Z,30.00
2017-06-12T12:41:50.694Z,30.00
2017-06-12T12:44:18.219Z,30.00
2017-06-12T12:46:45.742Z,27.90
2017-06-12T12:49:14.051Z,28.20
2017-06-12T12:51:41.575Z,28.20
2017-06-12T12:54:09.143Z,29.40
2017-06-12T12:56:37.433Z,30.30
2017-06-12T12:59:04.959Z,30.20
2017-06-12T13:01:33.274Z,29.50
2017-06-12T13:04:00.802Z,29.40
2017-06-12T13:06:28.356Z,29.30
2017-06-12T13:08:56.642Z,29.70
2017-06-12T13:11:24.159Z,29.70
2017-06-12T13:13:51.706Z,30.30
2017-06-12T13:16:19.230Z,29.70
2017-06-12T13:18:46.785Z,30.20
2017-06-12T13:21:14.312Z,30.80
2017-06-12T13:23:41.839Z,29.60
2017-06-12T13:26:10.155Z,29.50
2017-06-12T13:28:37.682Z,29.40
2017-06-12T13:31:05.996Z,30.00
2017-06-12T13:33:33.532Z,30.00
2017-06-12T13:36:01.052Z,29.80
2017-06-12T13:38:28.604Z,28.70
2017-06-12T13:40:56.139Z,28.70
2017-06-12T13:43:23.695Z,27.50
2017-06-12T13:45:51.986Z,27.90
2017-06-12T13:48:20.271Z,27.10
2017-06-12T13:50:47.815Z,27.10
2017-06-12T13:53:16.102Z,26.80
2017-06-12T13:55:43.650Z,26.70
2017-06-12T13:58:11.168Z,27.20
2017-06-12T14:00:38.686Z,27.10
2017-06-12T14:03:06.231Z,27.50
2017-06-12T14:05:33.756Z,28.50
2017-06-12T14:08:01.306Z,28.10
2017-06-12T14:10:28.825Z,29.40
2017-06-12T14:12:56.343Z,29.20
2017-06-12T14:15:23.890Z,28.30
2017-06-12T14:17:51.412Z,29.30
2017-06-12T14:20:18.958Z,29.00
2017-06-12T14:22:46.477Z,29.20
2017-06-12T14:25:14.021Z,30.70
2017-06-12T14:27:41.542Z,29.60
2017-06-12T14:30:09.059Z,29.30
2017-06-12T14:32:36.604Z,29.80
2017-06-12T14:35:04.129Z,29.80
2017-06-12T14:37:31.687Z,29.00
2017-06-12T14:39:59.210Z,28.90
2017-06-12T14:42:26.734Z,28.30
2017-06-12T14:44:54.276Z,29.30
2017-06-12T14:47:21.806Z,30.30
2017-06-12T14:49:49.353Z,29.30
2017-06-12T14:52:16.896Z,28.70
2017-06-12T14:54:44.443Z,29.10
2017-06-12T14:57:11.992Z,28.60
2017-06-12T14:59:39.520Z,29.40
2017-06-12T15:02:07.066Z,29.80
2017-06-12T15:04:34.591Z,30.10
2017-06-12T15:07:02.115Z,29.30
2017-06-12T15:09:29.653Z,28.90
2017-06-12T15:11:57.179Z,29.20
2017-06-12T15:14:24.725Z,29.50
2017-06-12T15:16:53.017Z,28.90
2017-06-12T15:19:20.551Z,28.90
2017-06-12T15:21:48.098Z,29.60
2017-06-12T15:24:15.620Z,28.70
2017-06-12T15:26:43.932Z,29.30
2017-06-12T15:29:11.451Z,29.40
2017-06-12T15:31:38.969Z,29.90
2017-06-12T15:34:06.515Z,29.60
2017-06-12T15:36:34.038Z,29.50
2017-06-12T15:39:01.578Z,29.50
2017-06-12T15:41:29.103Z,30.30
2017-06-12T15:43:56.618Z,30.00
2017-06-12T15:46:24.158Z,30.40
2017-06-12T15:48:51.679Z,30.30
2017-06-12T15:51:19.227Z,31.20
2017-06-12T15:53:46.751Z,31.70
2017-06-12T15:56:14.281Z,31.40
2017-06-12T15:58:41.829Z,30.90
2017-06-12T16:01:09.359Z,31.60
2017-06-12T16:03:36.902Z,31.60
2017-06-12T16:06:05.195Z,31.80
2017-06-12T16:08:32.716Z,31.80
2017-06-12T16:11:00.258Z,31.50
2017-06-12T16:13:27.781Z,31.70
2017-06-12T16:15:55.327Z,32.20
2017-06-12T16:18:23.387Z,32.10
2017-06-12T16:20:51.235Z,32.80
2017-06-12T16:23:18.794Z,32.50
2017-06-12T16:25:46.316Z,32.60
2017-06-12T16:28:13.859Z,32.80
2017-06-12T16:30:41.384Z,33.10
2017-06-12T16:33:08.907Z,33.00
2017-06-12T16:35:36.466Z,33.50
2017-06-12T16:38:04.758Z,35.10
2017-06-12T16:40:32.300Z,35.10
2017-06-12T16:42:59.826Z,35.40
2017-06-12T16:45:27.347Z,35.10
2017-06-12T16:47:54.890Z,35.50
2017-06-12T16:50:22.413Z,36.30
2017-06-12T16:52:50.731Z,36.40
2017-06-12T16:55:18.262Z,36.30
2017-06-12T16:57:45.783Z,36.40
2017-06-12T17:00:13.331Z,36.10
2017-06-12T17:02:40.859Z,36.60
2017-06-12T17:05:09.473Z,36.50
2017-06-12T17:07:37.023Z,36.30
2017-06-12T17:10:04.551Z,37.30
2017-06-12T17:12:32.094Z,37.00
2017-06-12T17:14:59.998Z,36.00
2017-06-12T17:17:27.554Z,37.30
2017-06-12T17:19:55.071Z,37.60
2017-06-12T17:22:22.594Z,37.00
2017-06-12T17:24:50.140Z,37.70
2017-06-12T17:27:17.659Z,38.10
2017-06-12T17:29:45.975Z,38.70
2017-06-12T17:32:13.501Z,38.10
2017-06-12T17:34:41.783Z,37.00
2017-06-12T17:37:09.338Z,37.00
2017-06-12T17:39:37.622Z,38.30
2017-06-12T17:42:05.168Z,38.30
2017-06-12T17:44:33.458Z,38.30
2017-06-12T17:47:00.986Z,38.20
2017-06-12T17:49:28.530Z,38.90
2017-06-12T17:51:56.059Z,38.10
2017-06-12T17:54:24.378Z,38.50
2017-06-12T17:56:51.906Z,38.50
2017-06-12T17:59:19.435Z,38.80
2017-06-12T18:01:46.986Z,39.20
2017-06-12T18:04:14.510Z,39.50
2017-06-12T18:06:42.827Z,39.40
2017-06-12T18:09:10.347Z,39.40
2017-06-12T18:11:37.868Z,39.10
2017-06-12T18:14:05.412Z,39.60
2017-06-12T18:16:32.938Z,39.30
2017-06-12T18:19:00.486Z,39.80
2017-06-12T18:21:28.010Z,40.20
2017-06-12T18:23:55.526Z,40.40
2017-06-12T18:26:23.073Z,40.30
2017-06-12T18:28:50.590Z,40.80
2017-06-12T18:31:18.134Z,40.80
2017-06-12T18:33:45.656Z,40.80
2017-06-12T18:36:13.947Z,41.50
2017-06-12T18:38:41.504Z,41.40
2017-06-12T18:41:09.034Z,41.20
2017-06-12T18:43:37.350Z,41.40
2017-06-12T18:46:04.867Z,41.40
2017-06-12T18:48:33.150Z,41.90
2017-06-12T18:51:00.699Z,42.50
2017-06-12T18:53:31.975Z,42.10
2017-06-12T18:55:59.851Z,42.10
2017-06-12T18:58:27.364Z,42.10
2017-06-12T19:00:54.898Z,42.50
2017-06-12T19:03:23.324Z,43.20
2017-06-12T19:05:50.947Z,43.20
2017-06-12T19:08:19.355Z,43.10
2017-06-12T19:10:46.879Z,44.10
2017-06-12T19:13:14.446Z,43.10
2017-06-12T19:15:41.976Z,43.20
2017-06-12T19:18:09.497Z,43.50
2017-06-12T19:20:37.042Z,43.80
2017-06-12T19:23:04.572Z,44.20
2017-06-12T19:25:32.115Z,44.20
2017-06-12T19:27:59.638Z,44.20
2017-06-12T19:30:27.185Z,45.80
2017-06-12T19:32:55.471Z,46.70
2017-06-12T19:35:23.002Z,46.60
2017-06-12T19:37:51.307Z,46.40
2017-06-12T19:40:18.839Z,46.40
2017-06-12T19:42:46.390Z,46.80
2017-06-12T19:45:13.918Z,47.40
2017-06-12T19:47:41.438Z,48.70
2017-06-12T19:50:08.980Z,48.80
2017-06-12T19:52:36.511Z,50.40
2017-06-12T19:55:04.062Z,49.90
2017-06-12T19:57:31.578Z,48.50
2017-06-12T19:59:59.867Z,50.30
2017-06-12T20:02:27.415Z,50.30
2017-06-12T20:04:55.701Z,51.10
2017-06-12T20:07:23.246Z,51.10
2017-06-12T20:09:50.771Z,51.60
2017-06-12T20:12:18.298Z,51.80
2017-06-12T20:14:46.611Z,51.50
2017-06-12T20:17:14.911Z,51.50
2017-06-12T20:19:42.464Z,51.40
2017-06-12T20:22:09.988Z,51.90
2017-06-12T20:24:37.509Z,53.20
2017-06-12T20:27:05.057Z,54.60
2017-06-12T20:29:32.573Z,55.00
2017-06-12T20:32:00.111Z,54.70
2017-06-12T20:34:27.634Z,54.20
2017-06-12T20:36:55.925Z,53.80
2017-06-12T20:39:23.472Z,53.90
2017-06-12T20:41:51.754Z,54.30
2017-06-12T20:44:19.318Z,54.30
2017-06-12T20:46:46.843Z,54.10
2017-06-12T20:49:14.367Z,54.20
2017-06-12T20:51:41.915Z,54.60
2017-06-12T20:54:09.439Z,54.70
2017-06-12T20:56:37.771Z,54.50
2017-06-12T20:59:05.287Z,54.50
2017-06-12T21:01:32.806Z,54.60
2017-06-12T21:04:00.358Z,54.60
2017-06-12T21:06:27.870Z,54.80
2017-06-12T21:08:55.414Z,55.20
2017-06-12T21:11:22.942Z,55.20
2017-06-12T21:13:50.466Z,55.10
2017-06-12T21:16:18.011Z,55.50
2017-06-12T21:18:45.535Z,56.40
2017-06-12T21:21:13.091Z,56.80
2017-06-12T21:23:40.615Z,56.90
2017-06-12T21:26:08.139Z,57.00
2017-06-12T21:28:35.684Z,57.20
2017-06-12T21:31:03.970Z,57.60
2017-06-12T21:33:31.524Z,57.60
2017-06-12T21:35:59.043Z,57.70
2017-06-12T21:38:26.568Z,57.80
2017-06-12T21:40:54.121Z,57.90
2017-06-12T21:43:21.643Z,58.10
2017-06-12T21:45:49.958Z,58.20
2017-06-12T21:48:17.479Z,58.10
2017-06-12T21:50:45.004Z,58.30
2017-06-12T21:53:12.546Z,58.20
2017-06-12T21:55:40.068Z,57.90
2017-06-12T21:58:07.620Z,58.00
2017-06-12T22:00:35.139Z,58.20
2017-06-12T22:03:02.658Z,58.20
2017-06-12T22:05:30.199Z,58.10
2017-06-12T22:07:57.722Z,58.80
2017-06-12T22:10:25.270Z,59.10
2017-06-12T22:12:53.554Z,59.90
2017-06-12T22:15:21.078Z,59.80
2017-06-12T22:17:49.391Z,60.40
2017-06-12T22:20:16.918Z,60.30
2017-06-12T22:22:44.467Z,60.50
2017-06-12T22:25:11.992Z,60.80
2017-06-12T22:27:39.516Z,60.90
2017-06-12T22:30:07.064Z,61.20
2017-06-12T22:32:35.350Z,63.20
2017-06-12T22:35:02.898Z,63.10
2017-06-12T22:37:30.419Z,62.90
2017-06-12T22:39:57.969Z,62.50
2017-06-12T22:42:26.254Z,63.00
2017-06-12T22:44:53.782Z,63.00
2017-06-12T22:47:22.095Z,63.00
2017-06-12T22:49:49.619Z,63.00
2017-06-12T22:52:17.170Z,64.30
2017-06-12T22:54:44.690Z,65.90
2017-06-12T22:57:12.210Z,66.60
2017-06-12T22:59:39.759Z,66.90
2017-06-12T23:02:07.282Z,66.50
2017-06-12T23:04:34.838Z,66.10
2017-06-12T23:07:02.355Z,65.40
2017-06-12T23:09:29.883Z,65.50
2017-06-12T23:11:58.195Z,66.00
2017-06-12T23:14:25.718Z,66.00
2017-06-12T23:16:53.267Z,66.50
2017-06-12T23:19:20.784Z,66.90
2017-06-12T23:21:54.580Z,67.70
2017-06-12T23:24:22.098Z,67.60
2017-06-12T23:26:49.623Z,67.00
2017-06-12T23:29:17.170Z,66.50
2017-06-12T23:31:44.696Z,65.00
2017-06-12T23:34:12.252Z,65.70
2017-06-12T23:36:39.771Z,66.40
2017-06-12T23:39:07.294Z,66.80
2017-06-12T23:41:35.607Z,68.10
2017-06-12T23:44:03.135Z,68.10
2017-06-12T23:46:31.458Z,68.50
2017-06-12T23:48:58.978Z,68.40
2017-06-12T23:51:26.490Z,69.00
2017-06-12T23:53:54.038Z,69.30
2017-06-12T23:56:21.558Z,69.00
2017-06-12T23:58:49.107Z,69.60
